Terminal Aerodrome Forecast
Issued by NWS

Home | Current Version | Previous Version | Text Only | Print | Product List | Glossary On
Versions: 1 2 3 4 5 6 7 8 9 10 11 12 13 14 15 16
000
FTUS42 KMHX 201720
TAFISO
TAF
KISO 201720Z 2018/2118 16008KT P6SM VCSH BKN035
     FM201900 17007KT P6SM BKN040
     FM210300 VRB03KT 5SM BR BKN025
     FM210500 VRB03KT 1/2SM FG BKN025
     FM211300 VRB03KT P6SM BKN022
      AMD LTD TO CLD VIS AND WIND=

USA.gov is the U.S. government's official web portal to all federal, state and local government web resources and services.